sensor_id;sensor_type;location;lat;lon;timestamp;pressure;altitude;pressure_sealevel;temperature;humidity
78573;BME280;67862;0.000;0.000;2024-03-29T00:00:21;98076.38;;;21.77;52.68
78573;BME280;67862;0.000;0.000;2024-03-29T00:02:47;98068.19;;;21.77;52.92
78573;BME280;67862;0.000;0.000;2024-03-29T00:05:12;98072.53;;;21.78;52.81
78573;BME280;67862;0.000;0.000;2024-03-29T00:07:40;98073.66;;;21.77;53.17
78573;BME280;67862;0.000;0.000;2024-03-29T00:10:05;98083.44;;;21.78;53.25
78573;BME280;67862;0.000;0.000;2024-03-29T00:12:31;98112.38;;;21.79;53.38
78573;BME280;67862;0.000;0.000;2024-03-29T00:14:56;98121.69;;;21.78;53.45
78573;BME280;67862;0.000;0.000;2024-03-29T00:17:22;98130.69;;;21.78;53.91
78573;BME280;67862;0.000;0.000;2024-03-29T00:19:47;98144.03;;;21.80;54.46
78573;BME280;67862;0.000;0.000;2024-03-29T00:22:12;98177.81;;;21.84;55.56
78573;BME280;67862;0.000;0.000;2024-03-29T00:24:37;98184.41;;;21.91;56.68
78573;BME280;67862;0.000;0.000;2024-03-29T00:27:03;98200.97;;;21.95;56.44
78573;BME280;67862;0.000;0.000;2024-03-29T00:29:29;98224.44;;;21.96;57.07
78573;BME280;67862;0.000;0.000;2024-03-29T00:31:54;98225.25;;;21.96;57.05
78573;BME280;67862;0.000;0.000;2024-03-29T00:34:20;98240.19;;;21.99;57.34
78573;BME280;67862;0.000;0.000;2024-03-29T00:36:45;98255.19;;;22.02;57.91
78573;BME280;67862;0.000;0.000;2024-03-29T00:39:10;98250.19;;;22.04;58.27
78573;BME280;67862;0.000;0.000;2024-03-29T00:41:36;98251.00;;;22.04;58.31
78573;BME280;67862;0.000;0.000;2024-03-29T00:44:02;98253.41;;;22.06;58.75
78573;BME280;67862;0.000;0.000;2024-03-29T00:46:28;98255.84;;;22.07;58.75
78573;BME280;67862;0.000;0.000;2024-03-29T00:48:54;98266.47;;;22.09;59.11
78573;BME280;67862;0.000;0.000;2024-03-29T00:51:19;98263.72;;;22.09;59.01
78573;BME280;67862;0.000;0.000;2024-03-29T00:53:45;98270.81;;;22.10;59.44
78573;BME280;67862;0.000;0.000;2024-03-29T00:56:10;98277.91;;;22.11;59.17
78573;BME280;67862;0.000;0.000;2024-03-29T00:58:36;98276.78;;;22.12;59.42
78573;BME280;67862;0.000;0.000;2024-03-29T01:01:01;98277.59;;;22.12;59.64
78573;BME280;67862;0.000;0.000;2024-03-29T01:03:26;98279.19;;;22.13;59.49
78573;BME280;67862;0.000;0.000;2024-03-29T01:05:56;98288.69;;;22.16;59.62
78573;BME280;67862;0.000;0.000;2024-03-29T01:08:21;98289.47;;;22.16;59.95
78573;BME280;67862;0.000;0.000;2024-03-29T01:10:48;98282.09;;;22.17;59.75
78573;BME280;67862;0.000;0.000;2024-03-29T01:13:13;98287.22;;;22.18;60.11
78573;BME280;67862;0.000;0.000;2024-03-29T01:15:39;98266.97;;;22.19;59.70
78573;BME280;67862;0.000;0.000;2024-03-29T01:18:04;98281.47;;;22.20;60.00
78573;BME280;67862;0.000;0.000;2024-03-29T01:20:29;98290.47;;;22.20;60.02
78573;BME280;67862;0.000;0.000;2024-03-29T01:22:55;98290.16;;;22.22;59.83
78573;BME280;67862;0.000;0.000;2024-03-29T01:25:20;98294.50;;;22.23;59.78
78573;BME280;67862;0.000;0.000;2024-03-29T01:27:46;98295.31;;;22.23;59.93
78573;BME280;67862;0.000;0.000;2024-03-29T01:30:12;98316.84;;;22.25;60.15
78573;BME280;67862;0.000;0.000;2024-03-29T01:32:37;98314.91;;;22.25;60.17
78573;BME280;67862;0.000;0.000;2024-03-29T01:35:03;98310.25;;;22.26;60.01
78573;BME280;67862;0.000;0.000;2024-03-29T01:37:28;98302.88;;;22.26;60.13
78573;BME280;67862;0.000;0.000;2024-03-29T01:39:55;98304.47;;;22.27;60.29
78573;BME280;67862;0.000;0.000;2024-03-29T01:42:21;98326.03;;;22.29;60.10
78573;BME280;67862;0.000;0.000;2024-03-29T01:44:46;98326.03;;;22.29;60.22
78573;BME280;67862;0.000;0.000;2024-03-29T01:47:11;98341.31;;;22.30;60.24
78573;BME280;67862;0.000;0.000;2024-03-29T01:49:37;98341.00;;;22.32;60.09
78573;BME280;67862;0.000;0.000;2024-03-29T01:52:02;98347.28;;;22.32;60.50
78573;BME280;67862;0.000;0.000;2024-03-29T01:54:29;98350.81;;;22.33;60.15
78573;BME280;67862;0.000;0.000;2024-03-29T01:56:54;98362.56;;;22.33;60.52
78573;BME280;67862;0.000;0.000;2024-03-29T01:59:21;98366.09;;;22.34;60.21
78573;BME280;67862;0.000;0.000;2024-03-29T02:01:46;98373.50;;;22.33;60.28
78573;BME280;67862;0.000;0.000;2024-03-29T02:04:12;98384.13;;;22.35;60.58
78573;BME280;67862;0.000;0.000;2024-03-29T02:06:37;98379.44;;;22.35;60.42
78573;BME280;67862;0.000;0.000;2024-03-29T02:09:03;98381.06;;;22.36;60.54
78573;BME280;67862;0.000;0.000;2024-03-29T02:11:28;98383.78;;;22.36;60.74
78573;BME280;67862;0.000;0.000;2024-03-29T02:13:54;98405.66;;;22.36;60.33
78573;BME280;67862;0.000;0.000;2024-03-29T02:16:19;98401.81;;;22.37;60.68
78573;BME280;67862;0.000;0.000;2024-03-29T02:18:44;98422.56;;;22.38;60.33
78573;BME280;67862;0.000;0.000;2024-03-29T02:21:10;98437.03;;;22.39;60.72
78573;BME280;67862;0.000;0.000;2024-03-29T02:23:36;98449.63;;;22.40;60.68
78573;BME280;67862;0.000;0.000;2024-03-29T02:26:02;98463.28;;;22.40;60.95
78573;BME280;67862;0.000;0.000;2024-03-29T02:28:28;98464.09;;;22.40;60.57
78573;BME280;67862;0.000;0.000;2024-03-29T02:30:53;98476.66;;;22.41;60.47
78573;BME280;67862;0.000;0.000;2024-03-29T02:33:20;98478.25;;;22.42;60.85
78573;BME280;67862;0.000;0.000;2024-03-29T02:35:46;98479.88;;;22.43;60.87
78573;BME280;67862;0.000;0.000;2024-03-29T02:38:11;98485.34;;;22.43;60.77
78573;BME280;67862;0.000;0.000;2024-03-29T02:40:36;98497.09;;;22.44;60.82
78573;BME280;67862;0.000;0.000;2024-03-29T02:43:02;98504.16;;;22.45;60.81
78573;BME280;67862;0.000;0.000;2024-03-29T02:45:27;98501.44;;;22.45;60.94
78573;BME280;67862;0.000;0.000;2024-03-29T02:47:52;98510.44;;;22.45;61.03
78573;BME280;67862;0.000;0.000;2024-03-29T02:50:18;98510.44;;;22.45;60.76
78573;BME280;67862;0.000;0.000;2024-03-29T02:52:43;98512.06;;;22.46;60.70
78573;BME280;67862;0.000;0.000;2024-03-29T02:55:09;98503.84;;;22.46;60.69
78573;BME280;67862;0.000;0.000;2024-03-29T02:57:37;98511.25;;;22.46;60.71
78573;BME280;67862;0.000;0.000;2024-03-29T03:00:04;98519.13;;;22.47;60.78
78573;BME280;67862;0.000;0.000;2024-03-29T03:02:30;98523.47;;;22.48;60.68
78573;BME280;67862;0.000;0.000;2024-03-29T03:04:55;98528.94;;;22.48;60.91
78573;BME280;67862;0.000;0.000;2024-03-29T03:07:20;98525.41;;;22.48;60.95
78573;BME280;67862;0.000;0.000;2024-03-29T03:10:04;98526.22;;;22.48;60.74
78573;BME280;67862;0.000;0.000;2024-03-29T03:12:48;98534.13;;;22.50;61.12
78573;BME280;67862;0.000;0.000;2024-03-29T03:15:13;98533.31;;;22.49;60.97
78573;BME280;67862;0.000;0.000;2024-03-29T03:17:39;98543.13;;;22.50;60.81
78573;BME280;67862;0.000;0.000;2024-03-29T03:20:04;98540.41;;;22.50;61.08
78573;BME280;67862;0.000;0.000;2024-03-29T03:22:31;98548.28;;;22.52;60.84
78573;BME280;67862;0.000;0.000;2024-03-29T03:24:57;98548.28;;;22.52;60.81
78573;BME280;67862;0.000;0.000;2024-03-29T03:27:22;98556.81;;;22.50;60.88
78573;BME280;67862;0.000;0.000;2024-03-29T03:29:48;98567.44;;;22.52;60.76
78573;BME280;67862;0.000;0.000;2024-03-29T03:32:13;98562.28;;;22.50;60.90
78573;BME280;67862;0.000;0.000;2024-03-29T03:34:39;98569.38;;;22.51;60.63
78573;BME280;67862;0.000;0.000;2024-03-29T03:37:04;98560.34;;;22.51;61.08
78573;BME280;67862;0.000;0.000;2024-03-29T03:39:30;98565.50;;;22.52;60.91
78573;BME280;67862;0.000;0.000;2024-03-29T03:41:55;98563.91;;;22.51;60.66
78573;BME280;67862;0.000;0.000;2024-03-29T03:44:21;98570.19;;;22.52;60.59
78573;BME280;67862;0.000;0.000;2024-03-29T03:46:49;98563.59;;;22.53;60.41
78573;BME280;67862;0.000;0.000;2024-03-29T03:49:14;98560.03;;;22.52;60.50
78573;BME280;67862;0.000;0.000;2024-03-29T03:51:39;98553.75;;;22.52;60.62
78573;BME280;67862;0.000;0.000;2024-03-29T03:54:04;98562.78;;;22.52;60.47
78573;BME280;67862;0.000;0.000;2024-03-29T03:56:30;98560.84;;;22.53;60.49
78573;BME280;67862;0.000;0.000;2024-03-29T03:58:55;98573.72;;;22.52;60.71
78573;BME280;67862;0.000;0.000;2024-03-29T04:01:20;98568.25;;;22.52;60.35
78573;BME280;67862;0.000;0.000;2024-03-29T04:03:46;98574.53;;;22.53;60.64
78573;BME280;67862;0.000;0.000;2024-03-29T04:06:11;98569.84;;;22.53;60.21
78573;BME280;67862;0.000;0.000;2024-03-29T04:08:36;98577.25;;;22.53;60.23
78573;BME280;67862;0.000;0.000;2024-03-29T04:11:02;98589.81;;;22.54;60.61
78573;BME280;67862;0.000;0.000;2024-03-29T04:13:27;98594.47;;;22.53;60.24
78573;BME280;67862;0.000;0.000;2024-03-29T04:15:53;98595.59;;;22.52;60.38
78573;BME280;67862;0.000;0.000;2024-03-29T04:18:18;98605.41;;;22.53;60.58
78573;BME280;67862;0.000;0.000;2024-03-29T04:20:43;98621.03;;;22.53;60.12
78573;BME280;67862;0.000;0.000;2024-03-29T04:23:08;98627.78;;;22.55;60.55
78573;BME280;67862;0.000;0.000;2024-03-29T04:25:34;98634.38;;;22.54;60.51
78573;BME280;67862;0.000;0.000;2024-03-29T04:27:59;98642.59;;;22.54;60.52
78573;BME280;67862;0.000;0.000;2024-03-29T04:30:24;98645.63;;;22.53;60.16
78573;BME280;67862;0.000;0.000;2024-03-29T04:32:50;98649.19;;;22.53;60.22
78573;BME280;67862;0.000;0.000;2024-03-29T04:35:15;98649.19;;;22.53;60.22
78573;BME280;67862;0.000;0.000;2024-03-29T04:37:40;98651.91;;;22.53;60.54
78573;BME280;67862;0.000;0.000;2024-03-29T04:40:06;98643.72;;;22.53;60.11
78573;BME280;67862;0.000;0.000;2024-03-29T04:42:31;98652.22;;;22.52;60.19
78573;BME280;67862;0.000;0.000;2024-03-29T04:44:57;98654.16;;;22.51;60.22
78573;BME280;67862;0.000;0.000;2024-03-29T04:47:22;98655.28;;;22.50;60.53
78573;BME280;67862;0.000;0.000;2024-03-29T04:49:47;98652.56;;;22.50;60.34
78573;BME280;67862;0.000;0.000;2024-03-29T04:52:13;98658.34;;;22.49;60.47
78573;BME280;67862;0.000;0.000;2024-03-29T04:54:38;98665.69;;;22.48;60.38
78573;BME280;67862;0.000;0.000;2024-03-29T04:57:04;98666.53;;;22.49;60.26
78573;BME280;67862;0.000;0.000;2024-03-29T04:59:31;98679.09;;;22.50;60.32
78573;BME280;67862;0.000;0.000;2024-03-29T05:01:58;98685.69;;;22.49;60.45
78573;BME280;67862;0.000;0.000;2024-03-29T05:04:23;98687.59;;;22.48;60.29
78573;BME280;67862;0.000;0.000;2024-03-29T05:06:55;98691.16;;;22.49;60.06
78573;BME280;67862;0.000;0.000;2024-03-29T05:09:20;98685.97;;;22.47;60.20
78573;BME280;67862;0.000;0.000;2024-03-29T05:11:46;98682.94;;;22.49;60.07
78573;BME280;67862;0.000;0.000;2024-03-29T05:14:12;98703.50;;;22.46;60.47
78573;BME280;67862;0.000;0.000;2024-03-29T05:16:39;98709.78;;;22.47;60.22
78573;BME280;67862;0.000;0.000;2024-03-29T05:19:04;98706.22;;;22.46;60.23
78573;BME280;67862;0.000;0.000;2024-03-29T05:21:29;98716.06;;;22.47;60.01
78573;BME280;67862;0.000;0.000;2024-03-29T05:23:55;98714.44;;;22.46;60.30
78573;BME280;67862;0.000;0.000;2024-03-29T05:26:20;98719.91;;;22.46;59.84
78573;BME280;67862;0.000;0.000;2024-03-29T05:28:45;98727.31;;;22.46;59.87
78573;BME280;67862;0.000;0.000;2024-03-29T05:31:12;98734.72;;;22.45;59.98
78573;BME280;67862;0.000;0.000;2024-03-29T05:33:41;98725.69;;;22.45;59.77
78573;BME280;67862;0.000;0.000;2024-03-29T05:36:07;98716.69;;;22.44;59.78
78573;BME280;67862;0.000;0.000;2024-03-29T05:38:33;98720.53;;;22.43;60.26
78573;BME280;67862;0.000;0.000;2024-03-29T05:40:59;98720.22;;;22.45;60.03
78573;BME280;67862;0.000;0.000;2024-03-29T05:43:24;98721.34;;;22.44;59.80
78573;BME280;67862;0.000;0.000;2024-03-29T05:45:52;98724.41;;;22.42;60.30
78573;BME280;67862;0.000;0.000;2024-03-29T05:48:17;98723.59;;;22.42;59.90
78573;BME280;67862;0.000;0.000;2024-03-29T05:50:44;98743.22;;;22.44;60.24
78573;BME280;67862;0.000;0.000;2024-03-29T05:53:09;98740.81;;;22.42;59.86
78573;BME280;67862;0.000;0.000;2024-03-29T05:55:34;98740.00;;;22.42;59.95
78573;BME280;67862;0.000;0.000;2024-03-29T05:58:00;98749.81;;;22.43;59.81
78573;BME280;67862;0.000;0.000;2024-03-29T06:00:25;98751.75;;;22.42;59.85
78573;BME280;67862;0.000;0.000;2024-03-29T06:02:51;98755.28;;;22.43;59.98
78573;BME280;67862;0.000;0.000;2024-03-29T06:05:16;98746.28;;;22.42;60.29
78573;BME280;67862;0.000;0.000;2024-03-29T06:07:41;98755.59;;;22.41;60.10
78573;BME280;67862;0.000;0.000;2024-03-29T06:10:07;98750.13;;;22.41;59.85
78573;BME280;67862;0.000;0.000;2024-03-29T06:12:34;98750.13;;;22.41;59.99
78573;BME280;67862;0.000;0.000;2024-03-29T06:15:00;98762.19;;;22.40;59.63
78573;BME280;67862;0.000;0.000;2024-03-29T06:17:43;98757.84;;;22.39;59.67
78573;BME280;67862;0.000;0.000;2024-03-29T06:20:10;98764.13;;;22.40;60.02
78573;BME280;67862;0.000;0.000;2024-03-29T06:22:36;98763.31;;;22.39;59.73
78573;BME280;67862;0.000;0.000;2024-03-29T06:25:01;98769.59;;;22.40;60.08
78573;BME280;67862;0.000;0.000;2024-03-29T06:27:33;98763.31;;;22.39;59.59
78573;BME280;67862;0.000;0.000;2024-03-29T06:29:58;98768.78;;;22.39;59.99
78573;BME280;67862;0.000;0.000;2024-03-29T06:32:24;98767.94;;;22.39;59.86
78573;BME280;67862;0.000;0.000;2024-03-29T06:34:49;98781.59;;;22.39;59.63
78573;BME280;67862;0.000;0.000;2024-03-29T06:37:14;98792.56;;;22.39;59.89
78573;BME280;67862;0.000;0.000;2024-03-29T06:39:40;98791.75;;;22.38;59.44
78573;BME280;67862;0.000;0.000;2024-03-29T06:42:07;98795.59;;;22.37;59.71
78573;BME280;67862;0.000;0.000;2024-03-29T06:44:32;98798.34;;;22.37;59.61
78573;BME280;67862;0.000;0.000;2024-03-29T06:46:58;98795.91;;;22.36;59.78
78573;BME280;67862;0.000;0.000;2024-03-29T06:49:23;98793.16;;;22.36;59.94
78573;BME280;67862;0.000;0.000;2024-03-29T06:51:48;98795.09;;;22.35;59.89
78573;BME280;67862;0.000;0.000;2024-03-29T06:54:13;98799.75;;;22.35;59.67
78573;BME280;67862;0.000;0.000;2024-03-29T06:56:39;98805.22;;;22.35;59.74
78573;BME280;67862;0.000;0.000;2024-03-29T06:59:04;98793.47;;;22.34;59.49
78573;BME280;67862;0.000;0.000;2024-03-29T07:01:29;98789.13;;;22.33;59.51
78573;BME280;67862;0.000;0.000;2024-03-29T07:03:55;98791.06;;;22.33;59.57
78573;BME280;67862;0.000;0.000;2024-03-29T07:06:20;98791.06;;;22.33;59.45
78573;BME280;67862;0.000;0.000;2024-03-29T07:08:46;98792.69;;;22.34;59.98
78573;BME280;67862;0.000;0.000;2024-03-29T07:11:12;98802.00;;;22.33;59.78
78573;BME280;67862;0.000;0.000;2024-03-29T07:13:37;98810.19;;;22.33;59.54
78573;BME280;67862;0.000;0.000;2024-03-29T07:16:03;98807.78;;;22.31;59.70
78573;BME280;67862;0.000;0.000;2024-03-29T07:18:28;98812.13;;;22.32;59.78
78573;BME280;67862;0.000;0.000;2024-03-29T07:20:54;98819.53;;;22.32;59.81
78573;BME280;67862;0.000;0.000;2024-03-29T07:23:20;98819.53;;;22.32;60.03
78573;BME280;67862;0.000;0.000;2024-03-29T07:25:56;98835.63;;;22.33;60.49
78573;BME280;67862;0.000;0.000;2024-03-29T07:28:22;98834.00;;;22.32;60.41
78573;BME280;67862;0.000;0.000;2024-03-29T07:30:47;98840.28;;;22.33;60.54
78573;BME280;67862;0.000;0.000;2024-03-29T07:33:15;98848.19;;;22.34;60.49
78573;BME280;67862;0.000;0.000;2024-03-29T07:35:40;98843.50;;;22.35;60.69
78573;BME280;67862;0.000;0.000;2024-03-29T07:38:06;98838.84;;;22.35;60.54
78573;BME280;67862;0.000;0.000;2024-03-29T07:40:31;98848.69;;;22.36;60.95
78573;BME280;67862;0.000;0.000;2024-03-29T07:42:57;98852.22;;;22.37;61.20
78573;BME280;67862;0.000;0.000;2024-03-29T07:45:22;98858.72;;;22.41;62.02
78573;BME280;67862;0.000;0.000;2024-03-29T07:47:48;98853.84;;;22.38;61.68
78573;BME280;67862;0.000;0.000;2024-03-29T07:50:17;98854.94;;;22.37;61.73
78573;BME280;67862;0.000;0.000;2024-03-29T07:52:44;98853.66;;;22.34;61.39
78573;BME280;67862;0.000;0.000;2024-03-29T07:55:10;98852.84;;;22.34;61.77
78573;BME280;67862;0.000;0.000;2024-03-29T07:57:35;98852.03;;;22.33;61.65
78573;BME280;67862;0.000;0.000;2024-03-29T08:00:01;98846.88;;;22.32;61.41
78573;BME280;67862;0.000;0.000;2024-03-29T08:02:26;98844.13;;;22.32;60.88
78573;BME280;67862;0.000;0.000;2024-03-29T08:04:54;98846.06;;;22.31;61.10
78573;BME280;67862;0.000;0.000;2024-03-29T08:07:20;98844.44;;;22.30;61.27
78573;BME280;67862;0.000;0.000;2024-03-29T08:09:45;98841.72;;;22.30;60.90
78573;BME280;67862;0.000;0.000;2024-03-29T08:12:10;98842.78;;;22.29;60.90
78573;BME280;67862;0.000;0.000;2024-03-29T08:14:36;98851.00;;;22.29;61.02
78573;BME280;67862;0.000;0.000;2024-03-29T08:17:01;98849.38;;;22.28;60.84
78573;BME280;67862;0.000;0.000;2024-03-29T08:19:30;98859.50;;;22.27;60.78
78573;BME280;67862;0.000;0.000;2024-03-29T08:21:55;98858.69;;;22.27;60.82
78573;BME280;67862;0.000;0.000;2024-03-29T08:24:20;98857.88;;;22.26;60.71
78573;BME280;67862;0.000;0.000;2024-03-29T08:26:46;98856.28;;;22.25;60.71
78573;BME280;67862;0.000;0.000;2024-03-29T08:29:11;98860.63;;;22.26;60.80
78573;BME280;67862;0.000;0.000;2024-03-29T08:31:36;98857.88;;;22.26;60.75
78573;BME280;67862;0.000;0.000;2024-03-29T08:34:02;98856.28;;;22.25;60.67
78573;BME280;67862;0.000;0.000;2024-03-29T08:36:28;98862.56;;;22.26;60.30
78573;BME280;67862;0.000;0.000;2024-03-29T08:38:53;98850.81;;;22.25;60.59
78573;BME280;67862;0.000;0.000;2024-03-29T08:41:18;98848.88;;;22.26;60.58
78573;BME280;67862;0.000;0.000;2024-03-29T08:43:45;98843.41;;;22.26;60.58
78573;BME280;67862;0.000;0.000;2024-03-29T08:46:13;98838.25;;;22.24;60.59
78573;BME280;67862;0.000;0.000;2024-03-29T08:48:41;98843.41;;;22.26;60.30
78573;BME280;67862;0.000;0.000;2024-03-29T08:51:09;98833.59;;;22.25;60.04
78573;BME280;67862;0.000;0.000;2024-03-29T08:53:35;98848.88;;;22.26;60.47
78573;BME280;67862;0.000;0.000;2024-03-29T08:56:01;98848.88;;;22.26;60.11
78573;BME280;67862;0.000;0.000;2024-03-29T08:58:26;98848.88;;;22.26;60.36
78573;BME280;67862;0.000;0.000;2024-03-29T09:00:52;98844.22;;;22.26;60.42
78573;BME280;67862;0.000;0.000;2024-03-29T09:03:17;98843.41;;;22.26;60.11
78573;BME280;67862;0.000;0.000;2024-03-29T09:05:43;98833.28;;;22.26;60.08
78573;BME280;67862;0.000;0.000;2024-03-29T09:08:08;98841.50;;;22.26;60.40
78573;BME280;67862;0.000;0.000;2024-03-29T09:10:33;98827.81;;;22.26;59.94
78573;BME280;67862;0.000;0.000;2024-03-29T09:12:59;98830.56;;;22.26;60.14
78573;BME280;67862;0.000;0.000;2024-03-29T09:15:24;98825.09;;;22.26;59.85
78573;BME280;67862;0.000;0.000;2024-03-29T09:17:49;98825.09;;;22.26;59.96
78573;BME280;67862;0.000;0.000;2024-03-29T09:23:21;98820.91;;;22.29;60.30
78573;BME280;67862;0.000;0.000;2024-03-29T09:25:48;98812.72;;;22.29;59.96
78573;BME280;67862;0.000;0.000;2024-03-29T09:28:13;98825.31;;;22.30;60.10
78573;BME280;67862;0.000;0.000;2024-03-29T09:30:39;98819.84;;;22.30;60.10
78573;BME280;67862;0.000;0.000;2024-03-29T09:33:04;98819.84;;;22.30;59.96
78573;BME280;67862;0.000;0.000;2024-03-29T09:35:32;98809.69;;;22.31;60.21
78573;BME280;67862;0.000;0.000;2024-03-29T09:37:57;98806.66;;;22.32;60.37
78573;BME280;67862;0.000;0.000;2024-03-29T09:40:24;98809.38;;;22.32;60.19
78573;BME280;67862;0.000;0.000;2024-03-29T09:42:50;98806.66;;;22.32;59.89
78573;BME280;67862;0.000;0.000;2024-03-29T09:45:16;98793.00;;;22.32;60.21
78573;BME280;67862;0.000;0.000;2024-03-29T09:47:42;98813.75;;;22.33;60.38
78573;BME280;67862;0.000;0.000;2024-03-29T09:50:08;98824.38;;;22.35;59.95
78573;BME280;67862;0.000;0.000;2024-03-29T09:52:34;98822.44;;;22.35;60.28
78573;BME280;67862;0.000;0.000;2024-03-29T09:55:02;98831.47;;;22.36;60.10
78573;BME280;67862;0.000;0.000;2024-03-29T09:57:28;98817.78;;;22.36;60.18
78573;BME280;67862;0.000;0.000;2024-03-29T09:59:56;98818.59;;;22.36;59.92
78573;BME280;67862;0.000;0.000;2024-03-29T10:02:21;98798.34;;;22.37;59.88
78573;BME280;67862;0.000;0.000;2024-03-29T10:04:52;98793.66;;;22.38;60.25
78573;BME280;67862;0.000;0.000;2024-03-29T10:07:18;98782.44;;;22.39;60.07
78573;BME280;67862;0.000;0.000;2024-03-29T10:09:44;98782.44;;;22.39;59.98
78573;BME280;67862;0.000;0.000;2024-03-29T10:12:10;98783.25;;;22.40;59.93
78573;BME280;67862;0.000;0.000;2024-03-29T10:14:44;98778.59;;;22.40;59.89
78573;BME280;67862;0.000;0.000;2024-03-29T10:17:15;98778.59;;;22.40;59.88
78573;BME280;67862;0.000;0.000;2024-03-29T10:19:40;98775.56;;;22.42;60.09
78573;BME280;67862;0.000;0.000;2024-03-29T10:22:06;98772.00;;;22.41;59.73
78573;BME280;67862;0.000;0.000;2024-03-29T10:24:33;98768.97;;;22.43;59.75
78573;BME280;67862;0.000;0.000;2024-03-29T10:26:58;98764.28;;;22.43;59.80
78573;BME280;67862;0.000;0.000;2024-03-29T10:29:27;98776.84;;;22.44;60.13
78573;BME280;67862;0.000;0.000;2024-03-29T10:31:54;98781.50;;;22.44;59.96
78573;BME280;67862;0.000;0.000;2024-03-29T10:34:20;98769.47;;;22.45;60.43
78573;BME280;67862;0.000;0.000;2024-03-29T10:36:46;98766.72;;;22.45;60.00
78573;BME280;67862;0.000;0.000;2024-03-29T10:39:12;98767.53;;;22.45;60.11
78573;BME280;67862;0.000;0.000;2024-03-29T10:41:40;98765.59;;;22.46;60.51
78573;BME280;67862;0.000;0.000;2024-03-29T10:44:07;98768.03;;;22.47;60.50
78573;BME280;67862;0.000;0.000;2024-03-29T10:46:34;98766.91;;;22.48;60.93
78573;BME280;67862;0.000;0.000;2024-03-29T10:49:00;98760.34;;;22.49;60.71
78573;BME280;67862;0.000;0.000;2024-03-29T10:51:26;98762.78;;;22.51;60.73
78573;BME280;67862;0.000;0.000;2024-03-29T10:53:51;98762.78;;;22.51;60.60
78573;BME280;67862;0.000;0.000;2024-03-29T10:56:17;98765.50;;;22.51;60.54
78573;BME280;67862;0.000;0.000;2024-03-29T10:58:45;98755.69;;;22.50;60.32
78573;BME280;67862;0.000;0.000;2024-03-29T11:01:13;98753.13;;;22.53;60.06
78573;BME280;67862;0.000;0.000;2024-03-29T11:03:41;98748.78;;;22.52;59.53
78573;BME280;67862;0.000;0.000;2024-03-29T11:06:09;98735.09;;;22.52;59.23
78573;BME280;67862;0.000;0.000;2024-03-29T11:08:37;98735.09;;;22.52;58.98
78573;BME280;67862;0.000;0.000;2024-03-29T11:11:05;98726.91;;;22.52;58.51
78573;BME280;67862;0.000;0.000;2024-03-29T11:13:40;98726.41;;;22.50;58.45
78573;BME280;67862;0.000;0.000;2024-03-29T11:16:10;98716.28;;;22.51;58.34
78573;BME280;67862;0.000;0.000;2024-03-29T11:18:36;98712.72;;;22.50;58.06
78573;BME280;67862;0.000;0.000;2024-03-29T11:21:03;98710.00;;;22.50;57.96
78573;BME280;67862;0.000;0.000;2024-03-29T11:23:31;98698.25;;;22.50;57.36
78573;BME280;67862;0.000;0.000;2024-03-29T11:25:57;98695.50;;;22.50;57.29
78573;BME280;67862;0.000;0.000;2024-03-29T11:28:27;98682.13;;;22.48;55.95
78573;BME280;67862;0.000;0.000;2024-03-29T11:30:56;98688.72;;;22.47;56.24
78573;BME280;67862;0.000;0.000;2024-03-29T11:33:32;98687.59;;;22.48;56.66
78573;BME280;67862;0.000;0.000;2024-03-29T11:35:59;98686.78;;;22.48;56.61
78573;BME280;67862;0.000;0.000;2024-03-29T11:38:35;98685.16;;;22.47;56.25
78573;BME280;67862;0.000;0.000;2024-03-29T11:41:07;98677.28;;;22.45;56.21
78573;BME280;67862;0.000;0.000;2024-03-29T11:43:33;98671.00;;;22.45;56.00
78573;BME280;67862;0.000;0.000;2024-03-29T11:45:59;98670.69;;;22.46;55.86
78573;BME280;67862;0.000;0.000;2024-03-29T11:48:28;98669.88;;;22.46;55.62
78573;BME280;67862;0.000;0.000;2024-03-29T11:50:54;98663.91;;;22.44;55.04
78573;BME280;67862;0.000;0.000;2024-03-29T11:53:20;98660.38;;;22.43;55.06
78573;BME280;67862;0.000;0.000;2024-03-29T11:55:45;98660.38;;;22.43;54.93
78573;BME280;67862;0.000;0.000;2024-03-29T11:58:11;98657.13;;;22.41;54.92
78573;BME280;67862;0.000;0.000;2024-03-29T12:00:37;98656.34;;;22.41;54.02
78573;BME280;67862;0.000;0.000;2024-03-29T12:03:04;98657.13;;;22.41;53.72
78573;BME280;67862;0.000;0.000;2024-03-29T12:05:29;98645.72;;;22.39;53.82
78573;BME280;67862;0.000;0.000;2024-03-29T12:07:55;98642.97;;;22.39;53.72
78573;BME280;67862;0.000;0.000;2024-03-29T12:10:20;98642.13;;;22.39;53.59
78573;BME280;67862;0.000;0.000;2024-03-29T12:12:45;98635.88;;;22.38;53.54
78573;BME280;67862;0.000;0.000;2024-03-29T12:15:12;98645.19;;;22.37;53.68
78573;BME280;67862;0.000;0.000;2024-03-29T12:17:37;98638.91;;;22.37;53.25
78573;BME280;67862;0.000;0.000;2024-03-29T12:20:04;98650.66;;;22.37;53.23
78573;BME280;67862;0.000;0.000;2024-03-29T12:22:35;98644.38;;;22.37;53.53
78573;BME280;67862;0.000;0.000;2024-03-29T12:25:01;98646.31;;;22.36;52.85
78573;BME280;67862;0.000;0.000;2024-03-29T12:27:27;98643.41;;;22.33;49.36
78573;BME280;67862;0.000;0.000;2024-03-29T12:29:52;98665.13;;;22.02;44.12
78573;BME280;67862;0.000;0.000;2024-03-29T12:32:21;98660.78;;;21.87;44.21
78573;BME280;67862;0.000;0.000;2024-03-29T12:34:46;98657.88;;;21.83;45.76
78573;BME280;67862;0.000;0.000;2024-03-29T12:37:12;98650.16;;;21.85;46.82
78573;BME280;67862;0.000;0.000;2024-03-29T12:39:37;98660.91;;;21.82;47.13
78573;BME280;67862;0.000;0.000;2024-03-29T12:42:05;98654.09;;;21.79;46.24
78573;BME280;67862;0.000;0.000;2024-03-29T12:44:30;98650.56;;;21.79;46.74
78573;BME280;67862;0.000;0.000;2024-03-29T12:46:57;98646.03;;;21.74;46.15
78573;BME280;67862;0.000;0.000;2024-03-29T12:49:26;98646.13;;;21.69;46.25
78573;BME280;67862;0.000;0.000;2024-03-29T12:51:51;98656.94;;;21.60;45.92
78573;BME280;67862;0.000;0.000;2024-03-29T12:54:16;98645.75;;;21.62;46.62
78573;BME280;67862;0.000;0.000;2024-03-29T12:56:43;98636.53;;;21.58;46.55
78573;BME280;67862;0.000;0.000;2024-03-29T12:59:09;98644.31;;;21.51;46.40
78573;BME280;67862;0.000;0.000;2024-03-29T13:01:35;98639.88;;;21.55;47.07
78573;BME280;67862;0.000;0.000;2024-03-29T13:04:00;98636.66;;;21.53;46.59
78573;BME280;67862;0.000;0.000;2024-03-29T13:06:25;98631.78;;;21.50;46.19